Observation data for Knox City on 05/25/2019      Previous  Date  Next       Current Mesonet Observations  Soil Data  Daily Summary Page  Observations in Plain Language
KKN1 250500Z 07008KT 21/18 A2997 RMK A01 T02060182  RH  091%=      5-min Rain = 0
KKN1 250505Z 07007KT 21/18 A2997 RMK A01 T02070182  RH  090%=      5-min Rain = 0
KKN1 250510Z 07009KT 21/18 A2997 RMK A01 T02070182  RH  090%=      5-min Rain = 0
KKN1 250515Z 07010KT 21/18 A2997 RMK A01 T02070182  RH  090%=      5-min Rain = 0
KKN1 250520Z 07010G15KT 21/18 A2997 RMK A01 T02060182  RH  090%=      5-min Rain = 0
KKN1 250525Z 07010G15KT 21/18 A2997 RMK A01 T02060182  RH  091%=      5-min Rain = 0
KKN1 250530Z 07009KT 21/18 A2997 RMK A01 T02070182  RH  091%=      5-min Rain = 0
KKN1 250535Z 07009KT 21/18 A2997 RMK A01 T02070183  RH  091%=      5-min Rain = 0
KKN1 250540Z 07009KT 21/19 A2997 RMK A01 T02070185  RH  092%=      5-min Rain = 0
KKN1 250545Z 07008G14KT 21/19 A2997 RMK A01 T02080185  RH  092%=      5-min Rain = 0
KKN1 250550Z 07008KT 21/19 A2997 RMK A01 T02090186  RH  091%=      5-min Rain = 0
KKN1 250555Z 07009KT 21/19 A2997 RMK A01 T02090186  RH  092%=      5-min Rain = 0
KKN1 250600Z 07009KT 21/19 A2997 RMK A01 T02090186  RH  092%=      5-min Rain = 0
KKN1 250605Z 07009KT 21/19 A2997 RMK A01 T02080186  RH  092%=      5-min Rain = 0
KKN1 250610Z 07010KT 21/19 A2997 RMK A01 T02080185  RH  091%=      5-min Rain = 0
KKN1 250615Z 07009KT 21/19 A2997 RMK A01 T02070185  RH  092%=      5-min Rain = 0
KKN1 250620Z 07009KT 21/19 A2997 RMK A01 T02070185  RH  092%=      5-min Rain = 0
KKN1 250625Z 08008KT 21/19 A2996 RMK A01 T02070186  RH  092%=      5-min Rain = 0
KKN1 250630Z 09010KT 21/19 A2997 RMK A01 T02070186  RH  092%=      5-min Rain = 0
KKN1 250635Z 09010KT 21/19 A2997 RMK A01 T02070186  RH  092%=      5-min Rain = 0
KKN1 250640Z 09010KT 21/19 A2996 RMK A01 T02070185  RH  092%=      5-min Rain = 0
KKN1 250645Z 09009KT 21/19 A2996 RMK A01 T02060185  RH  093%=      5-min Rain = 0
KKN1 250650Z 09009KT 21/19 A2996 RMK A01 T02050186  RH  093%=      5-min Rain = 0
KKN1 250655Z 09009KT 21/19 A2996 RMK A01 T02050186  RH  094%=      5-min Rain = 0
KKN1 250700Z 10009KT 21/19 A2996 RMK A01 T02050186  RH  094%=      5-min Rain = 0
KKN1 250705Z 10007KT 21/19 A2996 RMK A01 T02060187  RH  094%=      5-min Rain = 0
KKN1 250710Z 09007KT 21/19 A2995 RMK A01 T02060188  RH  094%=      5-min Rain = 0
KKN1 250715Z 09007KT 21/19 A2995 RMK A01 T02070188  RH  094%=      5-min Rain = 0
KKN1 250720Z 09008KT 21/19 A2994 RMK A01 T02070189  RH  094%=      5-min Rain = 0
KKN1 250725Z 09007KT 21/19 A2994 RMK A01 T02080190  RH  094%=      5-min Rain = 0
KKN1 250730Z 10007KT 21/19 A2994 RMK A01 T02100191  RH  094%=      5-min Rain = 0
KKN1 250735Z 11007KT 21/19 A2994 RMK A01 T02140192  RH  092%=      5-min Rain = 0
KKN1 250740Z 11008G13KT 22/19 A2994 RMK A01 T02210194  RH  089%=      5-min Rain = 0
KKN1 250745Z 12008KT 22/19 A2994 RMK A01 T02230194  RH  088%=      5-min Rain = 0
KKN1 250750Z 12008KT 22/19 A2994 RMK A01 T02230194  RH  089%=      5-min Rain = 0
KKN1 250755Z 12008KT 22/20 A2993 RMK A01 T02230195  RH  089%=      5-min Rain = 0
KKN1 250800Z 13007KT 22/20 A2993 RMK A01 T02240195  RH  088%=      5-min Rain = 0
KKN1 250805Z 13009KT 23/20 A2993 RMK A01 T02260196  RH  088%=      5-min Rain = 0
KKN1 250810Z 13010KT 23/20 A2993 RMK A01 T02280195  RH  087%=      5-min Rain = 0
KKN1 250815Z 13010KT 23/20 A2993 RMK A01 T02290196  RH  086%=      5-min Rain = 0
KKN1 250820Z 14010KT 23/20 A2993 RMK A01 T02280196  RH  087%=      5-min Rain = 0
KKN1 250825Z 14009KT 23/20 A2993 RMK A01 T02280196  RH  087%=      5-min Rain = 0
KKN1 250830Z 14012KT 23/20 A2993 RMK A01 T02290195  RH  086%=      5-min Rain = 0
KKN1 250835Z 14012KT 23/20 A2992 RMK A01 T02300195  RH  086%=      5-min Rain = 0
KKN1 250840Z 14011KT 23/20 A2992 RMK A01 T02300195  RH  086%=      5-min Rain = 0
KKN1 250845Z 14012KT 23/20 A2992 RMK A01 T02290195  RH  086%=      5-min Rain = 0
KKN1 250850Z 14011G18KT 23/20 A2992 RMK A01 T02290195  RH  086%=      5-min Rain = 0
KKN1 250855Z 14010G16KT 23/20 A2992 RMK A01 T02280195  RH  086%=      5-min Rain = 0
KKN1 250900Z 14012G17KT 23/19 A2992 RMK A01 T02280194  RH  086%=      5-min Rain = 0
KKN1 250905Z 14011G17KT 23/19 A2991 RMK A01 T02270194  RH  086%=      5-min Rain = 0
KKN1 250910Z 14011KT 23/19 A2992 RMK A01 T02260194  RH  087%=      5-min Rain = 0
KKN1 250915Z 14012KT 23/19 A2992 RMK A01 T02260194  RH  087%=      5-min Rain = 0
KKN1 250920Z 15011G16KT 23/19 A2992 RMK A01 T02250194  RH  087%=      5-min Rain = 0
KKN1 250925Z 14012KT 23/19 A2992 RMK A01 T02250194  RH  087%=      5-min Rain = 0
KKN1 250930Z 15012G17KT 23/19 A2992 RMK A01 T02250194  RH  087%=      5-min Rain = 0
KKN1 250935Z 15012KT 22/19 A2992 RMK A01 T02240194  RH  088%=      5-min Rain = 0
KKN1 250940Z 15012G18KT 22/19 A2991 RMK A01 T02240193  RH  087%=      5-min Rain = 0
KKN1 250945Z 15013KT 23/19 A2991 RMK A01 T02250193  RH  087%=      5-min Rain = 0
KKN1 250950Z 15011KT 22/19 A2991 RMK A01 T02240193  RH  087%=      5-min Rain = 0
KKN1 250955Z 15013KT 22/19 A2992 RMK A01 T02240193  RH  087%=      5-min Rain = 0
KKN1 251000Z 15012G17KT 22/19 A2992 RMK A01 T02240192  RH  087%=      5-min Rain = 0
KKN1 251005Z 15011G16KT 22/19 A2992 RMK A01 T02230193  RH  087%=      5-min Rain = 0
KKN1 251010Z 15011G16KT 22/19 A2992 RMK A01 T02230192  RH  088%=      5-min Rain = 0
KKN1 251015Z 15012KT 22/19 A2992 RMK A01 T02230192  RH  088%=      5-min Rain = 0
KKN1 251020Z 15011G16KT 22/19 A2992 RMK A01 T02220192  RH  088%=      5-min Rain = 0
KKN1 251025Z 15010KT 22/19 A2992 RMK A01 T02210192  RH  089%=      5-min Rain = 0
KKN1 251030Z 15011KT 22/19 A2992 RMK A01 T02200192  RH  089%=      5-min Rain = 0
KKN1 251035Z 15011G16KT 22/19 A2992 RMK A01 T02200192  RH  089%=      5-min Rain = 0
KKN1 251040Z 15011KT 22/19 A2993 RMK A01 T02190192  RH  090%=      5-min Rain = 0
KKN1 251045Z 15011G16KT 22/19 A2993 RMK A01 T02190192  RH  089%=      5-min Rain = 0
KKN1 251050Z 16011KT 22/19 A2993 RMK A01 T02190192  RH  089%=      5-min Rain = 0
KKN1 251055Z 15010KT 22/19 A2993 RMK A01 T02190192  RH  089%=      5-min Rain = 0
KKN1 251100Z 15011KT 22/19 A2993 RMK A01 T02190192  RH  089%=      5-min Rain = 0
KKN1 251105Z 15011KT 22/19 A2993 RMK A01 T02200192  RH  089%=      5-min Rain = 0
KKN1 251110Z 15011KT 22/19 A2993 RMK A01 T02200192  RH  089%=      5-min Rain = 0
KKN1 251115Z 15011KT 22/19 A2994 RMK A01 T02200192  RH  089%=      5-min Rain = 0
KKN1 251120Z 15011G16KT 22/19 A2994 RMK A01 T02210192  RH  088%=      5-min Rain = 0
KKN1 251125Z 16011KT 22/19 A2994 RMK A01 T02210191  RH  088%=      5-min Rain = 0
KKN1 251130Z 16011KT 22/19 A2994 RMK A01 T02210191  RH  088%=      5-min Rain = 0
KKN1 251135Z 17011G17KT 22/19 A2994 RMK A01 T02210191  RH  088%=      5-min Rain = 0
KKN1 251140Z 16011KT 22/19 A2994 RMK A01 T02210191  RH  088%=      5-min Rain = 0
KKN1 251145Z 16011KT 22/19 A2994 RMK A01 T02210191  RH  088%=      5-min Rain = 0
KKN1 251150Z 16011G16KT 22/19 A2994 RMK A01 T02210191  RH  088%=      5-min Rain = 0
KKN1 251155Z 17013KT 22/19 A2994 RMK A01 T02210190  RH  087%=      5-min Rain = 0
KKN1 251200Z 17012KT 22/19 A2994 RMK A01 T02220190  RH  087%=      5-min Rain = 0
KKN1 251205Z 17013KT 22/19 A2995 RMK A01 T02220190  RH  087%=      5-min Rain = 0
KKN1 251210Z 17012KT 22/19 A2995 RMK A01 T02220190  RH  087%=      5-min Rain = 0
KKN1 251215Z 16012G17KT 22/19 A2995 RMK A01 T02230190  RH  086%=      5-min Rain = 0
KKN1 251220Z 16013KT 22/19 A2995 RMK A01 T02240190  RH  086%=      5-min Rain = 0
KKN1 251225Z 16014KT 23/19 A2995 RMK A01 T02260190  RH  085%=      5-min Rain = 0
KKN1 251230Z 16014G20KT 23/19 A2996 RMK A01 T02280190  RH  084%=      5-min Rain = 0
KKN1 251235Z 16013G20KT 23/19 A2995 RMK A01 T02290191  RH  083%=      5-min Rain = 0
KKN1 251240Z 16016G21KT 23/19 A2995 RMK A01 T02310191  RH  082%=      5-min Rain = 0
KKN1 251245Z 16017KT 23/19 A2995 RMK A01 T02330191  RH  082%=      5-min Rain = 0
KKN1 251250Z 16015G22KT 24/19 A2996 RMK A01 T02350191  RH  081%=      5-min Rain = 0
KKN1 251255Z 16017G25KT 24/19 A2996 RMK A01 T02380192  RH  080%=      5-min Rain = 0
KKN1 251300Z 16016G21KT 24/19 A2996 RMK A01 T02390192  RH  079%=      5-min Rain = 0
KKN1 251305Z 16017G23KT 24/19 A2996 RMK A01 T02420193  RH  078%=      5-min Rain = 0
KKN1 251310Z 16020G26KT 24/19 A2996 RMK A01 T02410192  RH  078%=      5-min Rain = 0
KKN1 251315Z 16017G24KT 24/19 A2996 RMK A01 T02400192  RH  079%=      5-min Rain = 0
KKN1 251320Z 17017G23KT 24/19 A2997 RMK A01 T02400192  RH  079%=      5-min Rain = 0
KKN1 251325Z 17018G24KT 24/19 A2997 RMK A01 T02370191  RH  080%=      5-min Rain = 0
KKN1 251330Z 17019G24KT 24/19 A2998 RMK A01 T02380192  RH  080%=      5-min Rain = 0
KKN1 251335Z 17016G23KT 24/19 A2998 RMK A01 T02430194  RH  078%=      5-min Rain = 0
KKN1 251340Z 17016G24KT 25/19 A2998 RMK A01 T02480194  RH  077%=      5-min Rain = 0
KKN1 251345Z 17018KT 25/19 A2998 RMK A01 T02450194  RH  077%=      5-min Rain = 0
KKN1 251350Z 17017G24KT 24/19 A2998 RMK A01 T02440194  RH  078%=      5-min Rain = 0
KKN1 251355Z 17019G25KT 25/19 A2998 RMK A01 T02450194  RH  077%=      5-min Rain = 0
KKN1 251400Z 17019G24KT 25/20 A2998 RMK A01 T02490195  RH  076%=      5-min Rain = 0
KKN1 251405Z 17017G24KT 25/20 A2998 RMK A01 T02490195  RH  076%=      5-min Rain = 0
KKN1 251410Z 17019G25KT 25/20 A2998 RMK A01 T02510196  RH  076%=      5-min Rain = 0
KKN1 251415Z 17018G26KT 25/20 A2998 RMK A01 T02500196  RH  076%=      5-min Rain = 0
KKN1 251420Z 17018G24KT 25/20 A2998 RMK A01 T02490196  RH  076%=      5-min Rain = 0
KKN1 251425Z 17018G24KT 25/20 A2998 RMK A01 T02510196  RH  076%=      5-min Rain = 0
KKN1 251430Z 17017G22KT 26/20 A2998 RMK A01 T02560198  RH  075%=      5-min Rain = 0
KKN1 251435Z 16019G25KT 26/20 A2998 RMK A01 T02580198  RH  073%=      5-min Rain = 0
KKN1 251440Z 17021KT 26/20 A2998 RMK A01 T02570197  RH  074%=      5-min Rain = 0
KKN1 251445Z 17020G26KT 26/20 A2998 RMK A01 T02570198  RH  074%=      5-min Rain = 0
KKN1 251450Z 17019G24KT 26/20 A2998 RMK A01 T02570198  RH  074%=      5-min Rain = 0
KKN1 251455Z 17019G26KT 26/20 A2998 RMK A01 T02590199  RH  074%=      5-min Rain = 0
KKN1 251500Z 17020G26KT 26/20 A2998 RMK A01 T02620199  RH  072%=      5-min Rain = 0
KKN1 251505Z 17019G25KT 26/20 A2998 RMK A01 T02610199  RH  073%=      5-min Rain = 0
KKN1 251510Z 17020G29KT 26/20 A2998 RMK A01 T02640200  RH  072%=      5-min Rain = 0
KKN1 251515Z 17021G27KT 27/20 A2998 RMK A01 T02650199  RH  071%=      5-min Rain = 0
KKN1 251520Z 17021G27KT 27/20 A2998 RMK A01 T02670200  RH  071%=      5-min Rain = 0
KKN1 251525Z 17022G28KT 27/20 A2998 RMK A01 T02680200  RH  070%=      5-min Rain = 0
KKN1 251530Z 17021G27KT 27/20 A2998 RMK A01 T02680200  RH  070%=      5-min Rain = 0
KKN1 251535Z 17019G27KT 27/20 A2998 RMK A01 T02720201  RH  069%=      5-min Rain = 0
KKN1 251540Z 17017G23KT 27/20 A2998 RMK A01 T02740202  RH  069%=      5-min Rain = 0
KKN1 251545Z 17018G26KT 28/20 A2998 RMK A01 T02770203  RH  068%=      5-min Rain = 0
KKN1 251550Z 17019G26KT 28/20 A2998 RMK A01 T02750202  RH  068%=      5-min Rain = 0
KKN1 251555Z 17021KT 28/20 A2998 RMK A01 T02760201  RH  068%=      5-min Rain = 0
KKN1 251600Z 17021G27KT 28/20 A2998 RMK A01 T02760201  RH  067%=      5-min Rain = 0
KKN1 251605Z 18020G28KT 28/20 A2999 RMK A01 T02770201  RH  067%=      5-min Rain = 0
KKN1 251610Z 17020G26KT 28/20 A2999 RMK A01 T02780201  RH  067%=      5-min Rain = 0
KKN1 251615Z 18018G23KT 28/20 A2999 RMK A01 T02800202  RH  066%=      5-min Rain = 0
KKN1 251620Z 17017G24KT 29/20 A2999 RMK A01 T02850204  RH  065%=      5-min Rain = 0
KKN1 251625Z 17020G26KT 28/20 A2999 RMK A01 T02800202  RH  066%=      5-min Rain = 0
KKN1 251630Z 17020G26KT 28/20 A2998 RMK A01 T02780201  RH  067%=      5-min Rain = 0
KKN1 251635Z 17017G24KT 28/20 A2998 RMK A01 T02800203  RH  067%=      5-min Rain = 0
KKN1 251640Z 17019G24KT 28/20 A2998 RMK A01 T02810203  RH  066%=      5-min Rain = 0
KKN1 251645Z 17021G29KT 28/20 A2998 RMK A01 T02810202  RH  066%=      5-min Rain = 0
KKN1 251650Z 18020G26KT 28/20 A2999 RMK A01 T02820202  RH  065%=      5-min Rain = 0
KKN1 251655Z 17019G27KT 29/20 A2999 RMK A01 T02850204  RH  065%=      5-min Rain = 0
KKN1 251700Z 17019G25KT 29/21 A2999 RMK A01 T02870205  RH  065%=      5-min Rain = 0
KKN1 251705Z 17020G26KT 29/20 A2998 RMK A01 T02900204  RH  063%=      5-min Rain = 0
KKN1 251710Z 17021G27KT 29/20 A2998 RMK A01 T02880203  RH  064%=      5-min Rain = 0
KKN1 251715Z 17022G28KT 29/20 A2998 RMK A01 T02850203  RH  065%=      5-min Rain = 0
KKN1 251720Z 17018G24KT 29/21 A2998 RMK A01 T02870205  RH  065%=      5-min Rain = 0
KKN1 251725Z 17018G23KT 29/21 A2998 RMK A01 T02870205  RH  065%=      5-min Rain = 0
KKN1 251730Z 17018G23KT 29/20 A2998 RMK A01 T02890204  RH  064%=      5-min Rain = 0
KKN1 251735Z 17018G23KT 29/20 A2998 RMK A01 T02910203  RH  063%=      5-min Rain = 0
KKN1 251740Z 17018G24KT 29/20 A2998 RMK A01 T02890203  RH  063%=      5-min Rain = 0
KKN1 251745Z 17017G22KT 29/20 A2998 RMK A01 T02880204  RH  064%=      5-min Rain = 0
KKN1 251750Z 17016G21KT 29/21 A2998 RMK A01 T02880205  RH  064%=      5-min Rain = 0
KKN1 251755Z 17017KT 29/20 A2998 RMK A01 T02870204  RH  064%=      5-min Rain = 0
KKN1 251800Z 17013G18KT 29/21 A2998 RMK A01 T02900206  RH  064%=      5-min Rain = 0
KKN1 251805Z 17014G21KT 29/21 A2998 RMK A01 T02910205  RH  063%=      5-min Rain = 0
KKN1 251810Z 16017KT 29/21 A2997 RMK A01 T02940205  RH  063%=      5-min Rain = 0
KKN1 251815Z 16016G22KT 30/21 A2997 RMK A01 T03000207  RH  061%=      5-min Rain = 0
KKN1 251820Z 16014G21KT 30/21 A2997 RMK A01 T02980207  RH  062%=      5-min Rain = 0
KKN1 251825Z 16016G23KT 30/21 A2996 RMK A01 T02990207  RH  061%=      5-min Rain = 0
KKN1 251830Z 17017G22KT 30/20 A2996 RMK A01 T02970204  RH  061%=      5-min Rain = 0
KKN1 251835Z 16015G21KT 30/21 A2996 RMK A01 T02980206  RH  061%=      5-min Rain = 0
KKN1 251840Z 16016G23KT 30/21 A2995 RMK A01 T02970206  RH  062%=      5-min Rain = 0
KKN1 251845Z 16016G21KT 30/21 A2995 RMK A01 T02980207  RH  061%=      5-min Rain = 0
KKN1 251850Z 16016G23KT 30/21 A2995 RMK A01 T02980207  RH  062%=      5-min Rain = 0
KKN1 251855Z 17016KT 30/21 A2995 RMK A01 T02980205  RH  061%=      5-min Rain = 0
KKN1 251900Z 17016G21KT 30/21 A2994 RMK A01 T03010206  RH  060%=      5-min Rain = 0
KKN1 251905Z 16017G25KT 31/21 A2994 RMK A01 T03060205  RH  058%=      5-min Rain = 0
KKN1 251910Z 16017G22KT 31/21 A2994 RMK A01 T03060206  RH  058%=      5-min Rain = 0
KKN1 251915Z 18016G23KT 30/21 A2994 RMK A01 T03040205  RH  059%=      5-min Rain = 0
KKN1 251920Z 17016G22KT 30/20 A2994 RMK A01 T03000204  RH  060%=      5-min Rain = 0
KKN1 251925Z 17018G26KT 30/20 A2994 RMK A01 T03000204  RH  060%=      5-min Rain = 0
KKN1 251930Z 17017G22KT 31/21 A2994 RMK A01 T03090205  RH  057%=      5-min Rain = 0
KKN1 251935Z 17014G21KT 31/21 A2994 RMK A01 T03080207  RH  059%=      5-min Rain = 0
KKN1 251940Z 17017G24KT 31/21 A2994 RMK A01 T03090207  RH  058%=      5-min Rain = 0
KKN1 251945Z 17018G23KT 30/20 A2994 RMK A01 T03040204  RH  058%=      5-min Rain = 0
KKN1 251950Z 16018G24KT 30/20 A2993 RMK A01 T03020203  RH  059%=      5-min Rain = 0
KKN1 251955Z 16017G22KT 31/21 A2993 RMK A01 T03050205  RH  058%=      5-min Rain = 0
KKN1 252000Z 17016G21KT 31/21 A2993 RMK A01 T03070205  RH  058%=      5-min Rain = 0
KKN1 252005Z 17015G22KT 31/21 A2993 RMK A01 T03070206  RH  058%=      5-min Rain = 0
KKN1 252010Z 16015G21KT 31/21 A2993 RMK A01 T03120209  RH  058%=      5-min Rain = 0
KKN1 252015Z 16015G21KT 31/21 A2992 RMK A01 T03070207  RH  059%=      5-min Rain = 0
KKN1 252020Z 16017G23KT 31/21 A2992 RMK A01 T03050206  RH  059%=      5-min Rain = 0
KKN1 252025Z 17015G22KT 31/21 A2992 RMK A01 T03110207  RH  057%=      5-min Rain = 0
KKN1 252030Z 16016G25KT 31/21 A2992 RMK A01 T03130207  RH  057%=      5-min Rain = 0
KKN1 252035Z 16015G22KT 31/21 A2991 RMK A01 T03120209  RH  058%=      5-min Rain = 0
KKN1 252040Z 16016G22KT 31/21 A2991 RMK A01 T03140209  RH  057%=      5-min Rain = 0
KKN1 252045Z 16016G21KT 32/21 A2991 RMK A01 T03180207  RH  055%=      5-min Rain = 0
KKN1 252050Z 16015G22KT 32/21 A2991 RMK A01 T03150209  RH  056%=      5-min Rain = 0
KKN1 252055Z 15018G23KT 32/21 A2991 RMK A01 T03170211  RH  057%=      5-min Rain = 0
KKN1 252100Z 15018G23KT 31/21 A2991 RMK A01 T03120209  RH  057%=      5-min Rain = 0
KKN1 252105Z 16018KT 31/21 A2991 RMK A01 T03130207  RH  056%=      5-min Rain = 0
KKN1 252110Z 16016G22KT 31/21 A2991 RMK A01 T03140209  RH  057%=      5-min Rain = 0
KKN1 252115Z 16015G20KT 31/21 A2992 RMK A01 T03130210  RH  058%=      5-min Rain = 0
KKN1 252120Z 16015G20KT 31/21 A2992 RMK A01 T03120209  RH  058%=      5-min Rain = 0
KKN1 252125Z 16014G21KT 31/21 A2991 RMK A01 T03130209  RH  057%=      5-min Rain = 0
KKN1 252130Z 17017G22KT 31/21 A2991 RMK A01 T03110207  RH  057%=      5-min Rain = 0
KKN1 252135Z 17019G24KT 31/20 A2991 RMK A01 T03100204  RH  056%=      5-min Rain = 0
KKN1 252140Z 17019G26KT 31/20 A299 RMK A01 T03140204  RH  055%=      5-min Rain = 0
KKN1 252145Z 17017G24KT 32/21 A299 RMK A01 T03170207  RH  056%=      5-min Rain = 0
KKN1 252150Z 17017G23KT 31/21 A299 RMK A01 T03140208  RH  057%=      5-min Rain = 0
KKN1 252155Z 16017G24KT 32/21 A299 RMK A01 T03180208  RH  055%=      5-min Rain = 0
KKN1 252200Z 16016G24KT 32/21 A2989 RMK A01 T03160208  RH  056%=      5-min Rain = 0
KKN1 252205Z 16017G24KT 31/21 A2989 RMK A01 T03140206  RH  056%=      5-min Rain = 0
KKN1 252210Z 16017G22KT 32/21 A2988 RMK A01 T03180208  RH  055%=      5-min Rain = 0
KKN1 252215Z 16017G22KT 31/21 A2989 RMK A01 T03140209  RH  057%=      5-min Rain = 0
KKN1 252220Z 16017G26KT 32/21 A2988 RMK A01 T03170208  RH  056%=      5-min Rain = 0
KKN1 252225Z 16016G23KT 32/21 A2988 RMK A01 T03160208  RH  056%=      5-min Rain = 0
KKN1 252230Z 16015G22KT 31/21 A2989 RMK A01 T03070208  RH  059%=      5-min Rain = 0
KKN1 252235Z 16014G19KT 31/21 A2989 RMK A01 T03050208  RH  059%=      5-min Rain = 0
KKN1 252240Z 16018G25KT 30/21 A2988 RMK A01 T03040206  RH  059%=      5-min Rain = 0
KKN1 252245Z 16018G24KT 30/20 A2988 RMK A01 T03020204  RH  059%=      5-min Rain = 0
KKN1 252250Z 17017G24KT 30/20 A2988 RMK A01 T03010203  RH  059%=      5-min Rain = 0
KKN1 252255Z 17013G20KT 30/20 A2988 RMK A01 T02990204  RH  060%=      5-min Rain = 0
KKN1 252300Z 16015G20KT 30/21 A2988 RMK A01 T02970206  RH  061%=      5-min Rain = 0
KKN1 252305Z 16016G21KT 30/21 A2988 RMK A01 T02960206  RH  062%=      5-min Rain = 0
KKN1 252310Z 16016G23KT 30/21 A2988 RMK A01 T02950206  RH  063%=      5-min Rain = 0
KKN1 252315Z 16014G21KT 29/21 A2988 RMK A01 T02930207  RH  063%=      5-min Rain = 0
KKN1 252320Z 16013G18KT 29/21 A2987 RMK A01 T02930207  RH  064%=      5-min Rain = 0
KKN1 252325Z 15014KT 29/21 A2986 RMK A01 T02920208  RH  064%=      5-min Rain = 0
KKN1 252330Z 16013G18KT 29/21 A2986 RMK A01 T02920209  RH  065%=      5-min Rain = 0
KKN1 252335Z 16014G19KT 29/21 A2986 RMK A01 T02920209  RH  065%=      5-min Rain = 0
KKN1 252340Z 16013G20KT 29/21 A2987 RMK A01 T02930208  RH  064%=      5-min Rain = 0
KKN1 252345Z 16015G21KT 29/21 A2987 RMK A01 T02940208  RH  063%=      5-min Rain = 0
KKN1 252350Z 16014G21KT 30/21 A2987 RMK A01 T02960209  RH  063%=      5-min Rain = 0
KKN1 252355Z 16013KT 30/21 A2988 RMK A01 T02980209  RH  062%=      5-min Rain = 0
KKN1 260000Z 16015G21KT 30/21 A2988 RMK A01 T03000208  RH  062%=      5-min Rain = 0
KKN1 260005Z 16015G22KT 30/21 A2988 RMK A01 T02980207  RH  061%=      5-min Rain = 0
KKN1 260010Z 16013G21KT 30/21 A2988 RMK A01 T02970207  RH  062%=      5-min Rain = 0
KKN1 260015Z 16014G20KT 30/21 A2988 RMK A01 T02990207  RH  061%=      5-min Rain = 0
KKN1 260020Z 16014G19KT 30/21 A2988 RMK A01 T02980207  RH  062%=      5-min Rain = 0
KKN1 260025Z 16012G19KT 30/21 A2988 RMK A01 T02980209  RH  063%=      5-min Rain = 0
KKN1 260030Z 16016G22KT 30/21 A2988 RMK A01 T02970207  RH  062%=      5-min Rain = 0
KKN1 260035Z 16016G22KT 30/21 A2987 RMK A01 T02960207  RH  062%=      5-min Rain = 0
KKN1 260040Z 16016G25KT 29/21 A2987 RMK A01 T02930206  RH  063%=      5-min Rain = 0
KKN1 260045Z 16019G24KT 29/20 A2987 RMK A01 T02930204  RH  062%=      5-min Rain = 0
KKN1 260050Z 16017G23KT 29/21 A2987 RMK A01 T02920205  RH  063%=      5-min Rain = 0
KKN1 260055Z 16016G22KT 29/21 A2987 RMK A01 T02910205  RH  064%=      5-min Rain = 0
KKN1 260100Z 16014G22KT 29/21 A2987 RMK A01 T02890206  RH  064%=      5-min Rain = 0
KKN1 260105Z 15012G17KT 29/21 A2987 RMK A01 T02860209  RH  067%=      5-min Rain = 0
KKN1 260110Z 16012KT 28/21 A2987 RMK A01 T02830212  RH  069%=      5-min Rain = 0
KKN1 260115Z 16013G19KT 28/21 A2988 RMK A01 T02820212  RH  070%=      5-min Rain = 0
KKN1 260120Z 16011KT 28/21 A2988 RMK A01 T02800212  RH  071%=      5-min Rain = 0
KKN1 260125Z 16011KT 28/21 A2988 RMK A01 T02780212  RH  072%=      5-min Rain = 0
KKN1 260130Z 16012G18KT 28/21 A2988 RMK A01 T02770211  RH  072%=      5-min Rain = 0
KKN1 260135Z 16013G18KT 28/21 A2988 RMK A01 T02770210  RH  071%=      5-min Rain = 0
KKN1 260140Z 16011KT 28/21 A2988 RMK A01 T02760209  RH  071%=      5-min Rain = 0
KKN1 260145Z 15009G14KT 27/21 A2989 RMK A01 T02740209  RH  072%=      5-min Rain = 0
KKN1 260150Z 16009KT 27/21 A2989 RMK A01 T02710209  RH  073%=      5-min Rain = 0
KKN1 260155Z 16010KT 27/21 A2989 RMK A01 T02700209  RH  073%=      5-min Rain = 0
KKN1 260200Z 16010KT 27/21 A299 RMK A01 T02700209  RH  074%=      5-min Rain = 0
KKN1 260205Z 16009KT 27/21 A299 RMK A01 T02690208  RH  074%=      5-min Rain = 0
KKN1 260210Z 16009KT 27/21 A299 RMK A01 T02680208  RH  074%=      5-min Rain = 0
KKN1 260215Z 16010KT 27/21 A299 RMK A01 T02680208  RH  074%=      5-min Rain = 0
KKN1 260220Z 16009G14KT 27/21 A299 RMK A01 T02670208  RH  074%=      5-min Rain = 0
KKN1 260225Z 16009KT 27/21 A299 RMK A01 T02670208  RH  074%=      5-min Rain = 0
KKN1 260230Z 16008KT 26/21 A299 RMK A01 T02640208  RH  076%=      5-min Rain = 0
KKN1 260235Z 16007KT 26/21 A299 RMK A01 T02630208  RH  076%=      5-min Rain = 0
KKN1 260240Z 15007KT 26/21 A299 RMK A01 T02620207  RH  076%=      5-min Rain = 0
KKN1 260245Z 15007KT 26/21 A299 RMK A01 T02620208  RH  077%=      5-min Rain = 0
KKN1 260250Z 15006KT 26/21 A2991 RMK A01 T02600208  RH  077%=      5-min Rain = 0
KKN1 260255Z 15006KT 26/21 A2991 RMK A01 T02590208  RH  078%=      5-min Rain = 0
KKN1 260300Z 16007KT 26/21 A2991 RMK A01 T02580207  RH  078%=      5-min Rain = 0
KKN1 260305Z 16008KT 26/21 A2991 RMK A01 T02570207  RH  078%=      5-min Rain = 0
KKN1 260310Z 16007KT 26/21 A2991 RMK A01 T02560207  RH  079%=      5-min Rain = 0
KKN1 260315Z 16008KT 26/21 A2991 RMK A01 T02550206  RH  079%=      5-min Rain = 0
KKN1 260320Z 16009KT 26/21 A2991 RMK A01 T02560206  RH  079%=      5-min Rain = 0
KKN1 260325Z 15009KT 26/21 A299 RMK A01 T02560206  RH  078%=      5-min Rain = 0
KKN1 260330Z 15009KT 26/21 A299 RMK A01 T02560206  RH  078%=      5-min Rain = 0
KKN1 260335Z 15008KT 26/21 A299 RMK A01 T02560206  RH  079%=      5-min Rain = 0
KKN1 260340Z 14008KT 25/21 A299 RMK A01 T02540206  RH  079%=      5-min Rain = 0
KKN1 260345Z 14007KT 25/21 A299 RMK A01 T02530207  RH  080%=      5-min Rain = 0
KKN1 260350Z 13007KT 25/21 A299 RMK A01 T02510206  RH  081%=      5-min Rain = 0
KKN1 260355Z 12007KT 25/21 A299 RMK A01 T02500205  RH  081%=      5-min Rain = 0
KKN1 260400Z 12007KT 25/21 A2991 RMK A01 T02490205  RH  081%=      5-min Rain = 0
KKN1 260405Z 12008KT 25/21 A299 RMK A01 T02500205  RH  081%=      5-min Rain = 0
KKN1 260410Z 12008KT 25/21 A2991 RMK A01 T02500205  RH  081%=      5-min Rain = 0
KKN1 260415Z 12008KT 25/21 A2991 RMK A01 T02500205  RH  081%=      5-min Rain = 0
KKN1 260420Z 12008KT 25/21 A2991 RMK A01 T02490205  RH  081%=      5-min Rain = 0
KKN1 260425Z 12008KT 25/21 A2992 RMK A01 T02490205  RH  081%=      5-min Rain = 0
KKN1 260430Z 12008KT 25/21 A2992 RMK A01 T02490205  RH  082%=      5-min Rain = 0
KKN1 260435Z 12009KT 25/21 A2992 RMK A01 T02490205  RH  081%=      5-min Rain = 0
KKN1 260440Z 13009KT 25/21 A2992 RMK A01 T02500205  RH  081%=      5-min Rain = 0
KKN1 260445Z 13010KT 25/21 A2993 RMK A01 T02490205  RH  081%=      5-min Rain = 0
KKN1 260450Z 13010KT 25/21 A2993 RMK A01 T02490205  RH  081%=      5-min Rain = 0
KKN1 260455Z 13009KT 25/21 A2994 RMK A01 T02490205  RH  081%=      5-min Rain = 0

Page generated in 0.0353 seconds.